Pellston, MI

8:50 AM EDT on September 01, 2015 (GMT -0400)
Creekside, 4 Miles WSW Bliss | | Change Station
CLOSE
Current Station
Personal Weather Station
Location: Bliss Township, MI
Elevation: 708 ft
Nearby Weather Stations

Elev 708 ft 45.65 °N, 84.92 °W | Updated 11 seconds ago

Clear
Clear
66.1 °F
Feels Like 66.1 °F
N
2.0
Wind Variable Wind from SE
Gusts 4.0 mph

Today
High -- | Low -- °F
--% Chance of Precip.
Yesterday
High -- | Low -- °F
Precip. -- in
7:00 AM 8:17 PM
Waning Gibbous, 89% visible
Pressure 30.03 in
Visibility 4.0 miles
Clouds Clear
Dew Point 66 °F
Humidity 99%
Rainfall 0.00 in
Snow Depth Not available.
UV 0 out of 12
Pollen 10.40 out of 12
Air Quality Not available.
Flu Activity Not available.
METAR KPLN 011154Z AUTO 00000KT 4SM BR CLR 18/17 A3003 RMK AO2 SLP167 T01830172 10194 20133 53004 $
Pressure 30.03 in
Visibility 4.0 miles
Clouds Clear
Dew Point 66 °F
Humidity 99%
Rainfall 0.00 in
Snow Depth Not available.
UV 0 out of 12
Pollen 10.40 out of 12
Air Quality Not available.
Flu Activity Not available.
METAR KPLN 011154Z AUTO 00000KT 4SM BR CLR 18/17 A3003 RMK AO2 SLP167 T01830172 10194 20133 53004 $
Nowcast | as of 8:00 am EDT on September 1, 2015

At 9 am...partly cloudy. Areas of fog. Temperature 68. Southwest winds 6 mph. At 11 am...partly cloudy. Temperature 73. Southwest winds 7 mph. At 1 PM...partly cloudy. Temperature 79. Southwest winds 8 mph. At 3 PM...partly cloudy. Temperature 82. Southwest winds 8 mph.

×

10-Day Weather Forecast

×

Almanac

Astronomy

Sep. 01, 2015 Rise Set
Actual Time
Civil Twilight
Nautical Twilight
Astronomical Twilight
Moon
Length of Visible Light
Length of Day
Tomorrow will be .
, % of the Moon is Illuminated

Today's Extremes

State Highs State Lows

Community

WunderPhotos

Upload Photos

1,851,510 photos uploaded!

WunderBlogs® & News

Nearby

Air Quality

  Air Quality AQ Index Pollutant
Not available.

Snow Depth

Station Depth Elevation

Earthquake Activity

City Distance Mag. Time & Date
Minimum magnitude displayed is 2.5.

Coastal Water Temperatures

Place Temperature

Stations

Nearby Weather Stations

Station Location Temp. Windchill Dew Point Humidity Wind Precip. Elev Updated Type